sensor_id;sensor_type;location;lat;lon;timestamp;P1;durP1;ratioP1;P2;durP2;ratioP2
13985;SDS011;7067;51.832;8.296;2023-03-14T00:02:02;2.00;;;1.40;;
13985;SDS011;7067;51.832;8.296;2023-03-14T00:04:27;2.90;;;1.45;;
13985;SDS011;7067;51.832;8.296;2023-03-14T00:06:52;9.73;;;2.28;;
13985;SDS011;7067;51.832;8.296;2023-03-14T00:09:18;4.70;;;1.40;;
13985;SDS011;7067;51.832;8.296;2023-03-14T00:11:43;11.20;;;2.42;;
13985;SDS011;7067;51.832;8.296;2023-03-14T00:14:08;5.93;;;1.58;;
13985;SDS011;7067;51.832;8.296;2023-03-14T00:16:34;52.05;;;4.82;;
13985;SDS011;7067;51.832;8.296;2023-03-14T00:18:59;4.95;;;1.98;;
13985;SDS011;7067;51.832;8.296;2023-03-14T00:21:25;5.13;;;1.10;;
13985;SDS011;7067;51.832;8.296;2023-03-14T00:23:50;9.18;;;3.58;;
13985;SDS011;7067;51.832;8.296;2023-03-14T00:26:17;5.75;;;1.60;;
13985;SDS011;7067;51.832;8.296;2023-03-14T00:28:43;6.80;;;1.98;;
13985;SDS011;7067;51.832;8.296;2023-03-14T00:31:10;13.23;;;3.28;;
13985;SDS011;7067;51.832;8.296;2023-03-14T00:33:37;20.48;;;3.28;;
13985;SDS011;7067;51.832;8.296;2023-03-14T00:36:03;5.97;;;2.10;;
13985;SDS011;7067;51.832;8.296;2023-03-14T00:38:31;5.60;;;1.35;;
13985;SDS011;7067;51.832;8.296;2023-03-14T00:40:57;14.75;;;2.50;;
13985;SDS011;7067;51.832;8.296;2023-03-14T00:43:23;10.68;;;3.63;;
13985;SDS011;7067;51.832;8.296;2023-03-14T00:45:49;8.80;;;2.70;;
13985;SDS011;7067;51.832;8.296;2023-03-14T00:48:15;8.50;;;1.98;;
13985;SDS011;7067;51.832;8.296;2023-03-14T00:50:41;23.73;;;2.78;;
13985;SDS011;7067;51.832;8.296;2023-03-14T00:53:06;26.90;;;3.90;;
13985;SDS011;7067;51.832;8.296;2023-03-14T00:55:31;11.13;;;2.45;;
13985;SDS011;7067;51.832;8.296;2023-03-14T00:57:57;6.32;;;1.98;;
13985;SDS011;7067;51.832;8.296;2023-03-14T01:00:22;6.38;;;2.20;;
13985;SDS011;7067;51.832;8.296;2023-03-14T01:02:48;7.35;;;2.55;;
13985;SDS011;7067;51.832;8.296;2023-03-14T01:05:13;22.42;;;2.63;;
13985;SDS011;7067;51.832;8.296;2023-03-14T01:07:39;4.57;;;1.73;;
13985;SDS011;7067;51.832;8.296;2023-03-14T01:10:05;22.42;;;2.90;;
13985;SDS011;7067;51.832;8.296;2023-03-14T01:12:32;10.68;;;2.67;;
13985;SDS011;7067;51.832;8.296;2023-03-14T01:14:57;6.25;;;3.38;;
13985;SDS011;7067;51.832;8.296;2023-03-14T01:17:22;8.13;;;2.70;;
13985;SDS011;7067;51.832;8.296;2023-03-14T01:19:48;41.17;;;3.92;;
13985;SDS011;7067;51.832;8.296;2023-03-14T01:22:13;7.55;;;2.15;;
13985;SDS011;7067;51.832;8.296;2023-03-14T01:24:39;6.55;;;1.85;;
13985;SDS011;7067;51.832;8.296;2023-03-14T01:27:04;3.55;;;1.42;;
13985;SDS011;7067;51.832;8.296;2023-03-14T01:29:29;7.60;;;2.38;;
13985;SDS011;7067;51.832;8.296;2023-03-14T01:31:55;3.25;;;1.40;;
13985;SDS011;7067;51.832;8.296;2023-03-14T01:34:20;6.07;;;1.77;;
13985;SDS011;7067;51.832;8.296;2023-03-14T01:36:46;3.33;;;0.82;;
13985;SDS011;7067;51.832;8.296;2023-03-14T01:39:11;5.05;;;2.08;;
13985;SDS011;7067;51.832;8.296;2023-03-14T01:41:37;5.85;;;2.03;;
13985;SDS011;7067;51.832;8.296;2023-03-14T01:44:04;5.70;;;2.40;;
13985;SDS011;7067;51.832;8.296;2023-03-14T01:52:16;9.35;;;1.92;;
13985;SDS011;7067;51.832;8.296;2023-03-14T01:54:44;49.75;;;9.57;;
13985;SDS011;7067;51.832;8.296;2023-03-14T01:57:22;12.88;;;4.25;;
13985;SDS011;7067;51.832;8.296;2023-03-14T01:59:52;12.65;;;2.75;;
13985;SDS011;7067;51.832;8.296;2023-03-14T02:02:24;3.45;;;1.35;;
13985;SDS011;7067;51.832;8.296;2023-03-14T02:04:49;9.00;;;2.63;;
13985;SDS011;7067;51.832;8.296;2023-03-14T02:09:41;6.10;;;1.55;;
13985;SDS011;7067;51.832;8.296;2023-03-14T02:12:08;110.60;;;13.25;;
13985;SDS011;7067;51.832;8.296;2023-03-14T02:14:34;178.10;;;16.38;;
13985;SDS011;7067;51.832;8.296;2023-03-14T02:17:01;90.40;;;7.03;;
13985;SDS011;7067;51.832;8.296;2023-03-14T02:19:36;4.80;;;0.98;;
13985;SDS011;7067;51.832;8.296;2023-03-14T02:22:10;3.65;;;0.70;;
13985;SDS011;7067;51.832;8.296;2023-03-14T02:29:30;16.60;;;1.55;;
13985;SDS011;7067;51.832;8.296;2023-03-14T02:31:57;6.30;;;1.90;;
13985;SDS011;7067;51.832;8.296;2023-03-14T02:34:22;16.52;;;1.70;;
13985;SDS011;7067;51.832;8.296;2023-03-14T02:36:48;4.20;;;1.48;;
13985;SDS011;7067;51.832;8.296;2023-03-14T02:39:14;3.15;;;0.60;;
13985;SDS011;7067;51.832;8.296;2023-03-14T02:41:45;15.32;;;2.72;;
13985;SDS011;7067;51.832;8.296;2023-03-14T02:44:11;31.80;;;3.22;;
13985;SDS011;7067;51.832;8.296;2023-03-14T02:46:36;4.85;;;1.13;;
13985;SDS011;7067;51.832;8.296;2023-03-14T02:49:03;5.72;;;0.85;;
13985;SDS011;7067;51.832;8.296;2023-03-14T02:51:30;4.05;;;0.90;;
13985;SDS011;7067;51.832;8.296;2023-03-14T02:53:56;3.08;;;1.38;;
13985;SDS011;7067;51.832;8.296;2023-03-14T02:56:21;2.97;;;0.47;;
13985;SDS011;7067;51.832;8.296;2023-03-14T02:58:47;57.63;;;8.40;;
13985;SDS011;7067;51.832;8.296;2023-03-14T03:01:12;1.95;;;0.50;;
13985;SDS011;7067;51.832;8.296;2023-03-14T03:03:37;2.30;;;0.50;;
13985;SDS011;7067;51.832;8.296;2023-03-14T03:06:03;6.22;;;1.27;;
13985;SDS011;7067;51.832;8.296;2023-03-14T03:08:28;3.58;;;1.50;;
13985;SDS011;7067;51.832;8.296;2023-03-14T03:10:54;1.65;;;0.55;;
13985;SDS011;7067;51.832;8.296;2023-03-14T03:13:20;2.55;;;0.30;;
13985;SDS011;7067;51.832;8.296;2023-03-14T03:15:45;14.15;;;1.23;;
13985;SDS011;7067;51.832;8.296;2023-03-14T03:18:11;3.42;;;0.85;;
13985;SDS011;7067;51.832;8.296;2023-03-14T03:20:36;1.30;;;0.20;;
13985;SDS011;7067;51.832;8.296;2023-03-14T03:23:01;1.15;;;0.57;;
13985;SDS011;7067;51.832;8.296;2023-03-14T03:25:27;2.67;;;0.77;;
13985;SDS011;7067;51.832;8.296;2023-03-14T03:27:53;6.43;;;2.03;;
13985;SDS011;7067;51.832;8.296;2023-03-14T03:30:18;32.03;;;2.35;;
13985;SDS011;7067;51.832;8.296;2023-03-14T03:32:43;1.58;;;1.05;;
13985;SDS011;7067;51.832;8.296;2023-03-14T03:35:09;2.08;;;1.10;;
13985;SDS011;7067;51.832;8.296;2023-03-14T03:37:34;4.97;;;1.63;;
13985;SDS011;7067;51.832;8.296;2023-03-14T03:40:00;3.17;;;0.95;;
13985;SDS011;7067;51.832;8.296;2023-03-14T03:42:28;8.00;;;1.38;;
13985;SDS011;7067;51.832;8.296;2023-03-14T03:44:54;2.28;;;0.82;;
13985;SDS011;7067;51.832;8.296;2023-03-14T03:47:19;4.35;;;0.88;;
13985;SDS011;7067;51.832;8.296;2023-03-14T03:49:44;6.10;;;1.50;;
13985;SDS011;7067;51.832;8.296;2023-03-14T03:52:10;4.60;;;2.00;;
13985;SDS011;7067;51.832;8.296;2023-03-14T03:54:35;25.52;;;1.92;;
13985;SDS011;7067;51.832;8.296;2023-03-14T03:57:01;5.95;;;1.95;;
13985;SDS011;7067;51.832;8.296;2023-03-14T03:59:26;5.32;;;1.73;;
13985;SDS011;7067;51.832;8.296;2023-03-14T04:01:52;17.92;;;1.67;;
13985;SDS011;7067;51.832;8.296;2023-03-14T04:04:17;4.85;;;1.40;;
13985;SDS011;7067;51.832;8.296;2023-03-14T04:06:42;8.38;;;1.50;;
13985;SDS011;7067;51.832;8.296;2023-03-14T04:09:09;17.45;;;2.33;;
13985;SDS011;7067;51.832;8.296;2023-03-14T04:11:35;11.23;;;2.38;;
13985;SDS011;7067;51.832;8.296;2023-03-14T04:14:00;9.93;;;2.08;;
13985;SDS011;7067;51.832;8.296;2023-03-14T04:16:25;8.48;;;1.83;;
13985;SDS011;7067;51.832;8.296;2023-03-14T04:18:51;4.93;;;1.17;;
13985;SDS011;7067;51.832;8.296;2023-03-14T04:21:16;6.57;;;2.28;;
13985;SDS011;7067;51.832;8.296;2023-03-14T04:23:42;4.28;;;1.65;;
13985;SDS011;7067;51.832;8.296;2023-03-14T04:26:08;3.88;;;1.10;;
13985;SDS011;7067;51.832;8.296;2023-03-14T04:28:33;15.20;;;2.70;;
13985;SDS011;7067;51.832;8.296;2023-03-14T04:31:06;5.78;;;1.77;;
13985;SDS011;7067;51.832;8.296;2023-03-14T04:33:35;12.35;;;2.20;;
13985;SDS011;7067;51.832;8.296;2023-03-14T04:36:02;4.32;;;1.65;;
13985;SDS011;7067;51.832;8.296;2023-03-14T04:38:28;10.00;;;2.60;;
13985;SDS011;7067;51.832;8.296;2023-03-14T04:40:53;7.82;;;1.83;;
13985;SDS011;7067;51.832;8.296;2023-03-14T04:43:18;7.38;;;2.50;;
13985;SDS011;7067;51.832;8.296;2023-03-14T04:45:44;5.70;;;1.30;;
13985;SDS011;7067;51.832;8.296;2023-03-14T04:48:09;5.05;;;1.63;;
13985;SDS011;7067;51.832;8.296;2023-03-14T04:50:34;5.20;;;1.63;;
13985;SDS011;7067;51.832;8.296;2023-03-14T04:53:00;4.57;;;1.10;;
13985;SDS011;7067;51.832;8.296;2023-03-14T04:55:25;4.05;;;1.15;;
13985;SDS011;7067;51.832;8.296;2023-03-14T04:57:50;7.05;;;2.47;;
13985;SDS011;7067;51.832;8.296;2023-03-14T05:00:16;5.70;;;1.95;;
13985;SDS011;7067;51.832;8.296;2023-03-14T05:02:45;7.00;;;1.40;;
13985;SDS011;7067;51.832;8.296;2023-03-14T05:05:10;3.17;;;1.33;;
13985;SDS011;7067;51.832;8.296;2023-03-14T05:07:35;9.50;;;2.83;;
13985;SDS011;7067;51.832;8.296;2023-03-14T05:10:01;33.97;;;3.58;;
13985;SDS011;7067;51.832;8.296;2023-03-14T05:12:26;29.02;;;4.78;;
13985;SDS011;7067;51.832;8.296;2023-03-14T05:14:51;10.13;;;1.63;;
13985;SDS011;7067;51.832;8.296;2023-03-14T05:17:17;6.20;;;1.83;;
13985;SDS011;7067;51.832;8.296;2023-03-14T05:19:43;9.30;;;3.05;;
13985;SDS011;7067;51.832;8.296;2023-03-14T05:22:09;7.00;;;1.42;;
13985;SDS011;7067;51.832;8.296;2023-03-14T05:24:35;8.43;;;1.90;;
13985;SDS011;7067;51.832;8.296;2023-03-14T05:27:00;3.78;;;0.85;;
13985;SDS011;7067;51.832;8.296;2023-03-14T05:29:26;4.22;;;1.00;;
13985;SDS011;7067;51.832;8.296;2023-03-14T05:31:51;4.32;;;1.10;;
13985;SDS011;7067;51.832;8.296;2023-03-14T05:34:16;10.30;;;1.27;;
13985;SDS011;7067;51.832;8.296;2023-03-14T05:36:42;3.20;;;1.15;;
13985;SDS011;7067;51.832;8.296;2023-03-14T05:39:07;2.38;;;1.00;;
13985;SDS011;7067;51.832;8.296;2023-03-14T05:41:32;2.50;;;0.82;;
13985;SDS011;7067;51.832;8.296;2023-03-14T05:43:58;2.75;;;1.35;;
13985;SDS011;7067;51.832;8.296;2023-03-14T05:46:23;56.15;;;5.28;;
13985;SDS011;7067;51.832;8.296;2023-03-14T05:48:48;2.05;;;0.60;;
13985;SDS011;7067;51.832;8.296;2023-03-14T05:51:14;8.18;;;1.40;;
13985;SDS011;7067;51.832;8.296;2023-03-14T05:53:39;109.65;;;7.25;;
13985;SDS011;7067;51.832;8.296;2023-03-14T05:56:05;2.08;;;0.40;;
13985;SDS011;7067;51.832;8.296;2023-03-14T05:58:30;9.38;;;1.85;;
13985;SDS011;7067;51.832;8.296;2023-03-14T06:00:56;1.15;;;0.55;;
13985;SDS011;7067;51.832;8.296;2023-03-14T06:03:21;13.02;;;1.58;;
13985;SDS011;7067;51.832;8.296;2023-03-14T06:05:49;1.20;;;0.98;;
13985;SDS011;7067;51.832;8.296;2023-03-14T06:08:15;1.27;;;0.50;;
13985;SDS011;7067;51.832;8.296;2023-03-14T06:10:40;30.75;;;2.50;;
13985;SDS011;7067;51.832;8.296;2023-03-14T06:13:06;2.97;;;1.65;;
13985;SDS011;7067;51.832;8.296;2023-03-14T06:15:31;1.65;;;0.85;;
13985;SDS011;7067;51.832;8.296;2023-03-14T06:17:57;0.77;;;0.35;;
13985;SDS011;7067;51.832;8.296;2023-03-14T06:20:23;7.32;;;0.63;;
13985;SDS011;7067;51.832;8.296;2023-03-14T06:22:48;2.47;;;1.05;;
13985;SDS011;7067;51.832;8.296;2023-03-14T06:25:13;1.30;;;0.30;;
13985;SDS011;7067;51.832;8.296;2023-03-14T06:27:39;0.38;;;0.30;;
13985;SDS011;7067;51.832;8.296;2023-03-14T06:30:04;12.25;;;1.27;;
13985;SDS011;7067;51.832;8.296;2023-03-14T06:32:30;3.35;;;0.40;;
13985;SDS011;7067;51.832;8.296;2023-03-14T06:34:56;1.00;;;0.35;;
13985;SDS011;7067;51.832;8.296;2023-03-14T06:37:22;2.85;;;0.93;;
13985;SDS011;7067;51.832;8.296;2023-03-14T06:39:47;1.67;;;1.13;;
13985;SDS011;7067;51.832;8.296;2023-03-14T06:42:13;19.48;;;1.40;;
13985;SDS011;7067;51.832;8.296;2023-03-14T06:44:38;26.27;;;1.05;;
13985;SDS011;7067;51.832;8.296;2023-03-14T06:47:03;1.00;;;0.20;;
13985;SDS011;7067;51.832;8.296;2023-03-14T06:49:29;0.63;;;0.63;;
13985;SDS011;7067;51.832;8.296;2023-03-14T06:51:54;9.27;;;1.08;;
13985;SDS011;7067;51.832;8.296;2023-03-14T06:54:19;1.27;;;0.57;;
13985;SDS011;7067;51.832;8.296;2023-03-14T06:56:45;1.00;;;0.52;;
13985;SDS011;7067;51.832;8.296;2023-03-14T06:59:10;81.50;;;7.30;;
13985;SDS011;7067;51.832;8.296;2023-03-14T07:01:35;0.40;;;0.20;;
13985;SDS011;7067;51.832;8.296;2023-03-14T07:04:01;2.28;;;0.30;;
13985;SDS011;7067;51.832;8.296;2023-03-14T07:06:27;0.93;;;0.25;;
13985;SDS011;7067;51.832;8.296;2023-03-14T07:08:54;1.05;;;0.20;;
13985;SDS011;7067;51.832;8.296;2023-03-14T07:11:20;10.18;;;1.25;;
13985;SDS011;7067;51.832;8.296;2023-03-14T07:13:45;5.63;;;1.52;;
13985;SDS011;7067;51.832;8.296;2023-03-14T07:16:10;2.08;;;1.02;;
13985;SDS011;7067;51.832;8.296;2023-03-14T07:18:36;6.00;;;1.02;;
13985;SDS011;7067;51.832;8.296;2023-03-14T07:21:02;1.95;;;0.40;;
13985;SDS011;7067;51.832;8.296;2023-03-14T07:23:28;1.60;;;0.82;;
13985;SDS011;7067;51.832;8.296;2023-03-14T07:25:54;1.05;;;0.38;;
13985;SDS011;7067;51.832;8.296;2023-03-14T07:28:19;2.15;;;0.45;;
13985;SDS011;7067;51.832;8.296;2023-03-14T07:30:48;14.75;;;1.45;;
13985;SDS011;7067;51.832;8.296;2023-03-14T07:33:14;4.63;;;1.95;;
13985;SDS011;7067;51.832;8.296;2023-03-14T07:35:39;3.42;;;0.80;;
13985;SDS011;7067;51.832;8.296;2023-03-14T07:38:04;3.25;;;0.60;;
13985;SDS011;7067;51.832;8.296;2023-03-14T07:40:30;4.38;;;1.27;;
13985;SDS011;7067;51.832;8.296;2023-03-14T07:42:55;2.53;;;1.15;;
13985;SDS011;7067;51.832;8.296;2023-03-14T07:45:21;2.72;;;1.02;;
13985;SDS011;7067;51.832;8.296;2023-03-14T07:47:46;13.88;;;3.55;;
13985;SDS011;7067;51.832;8.296;2023-03-14T07:50:11;2.72;;;1.65;;
13985;SDS011;7067;51.832;8.296;2023-03-14T07:52:37;4.05;;;0.75;;
13985;SDS011;7067;51.832;8.296;2023-03-14T07:55:02;2.03;;;1.20;;
13985;SDS011;7067;51.832;8.296;2023-03-14T07:57:27;15.70;;;2.28;;
13985;SDS011;7067;51.832;8.296;2023-03-14T07:59:53;2.15;;;1.00;;
13985;SDS011;7067;51.832;8.296;2023-03-14T08:02:18;4.40;;;0.80;;
13985;SDS011;7067;51.832;8.296;2023-03-14T08:04:47;1.08;;;0.68;;
13985;SDS011;7067;51.832;8.296;2023-03-14T08:07:12;2.90;;;0.60;;
13985;SDS011;7067;51.832;8.296;2023-03-14T08:09:37;3.90;;;1.05;;
13985;SDS011;7067;51.832;8.296;2023-03-14T08:12:03;2.17;;;0.57;;
13985;SDS011;7067;51.832;8.296;2023-03-14T08:14:28;2.92;;;0.77;;
13985;SDS011;7067;51.832;8.296;2023-03-14T08:16:54;3.42;;;1.95;;
13985;SDS011;7067;51.832;8.296;2023-03-14T08:19:19;6.20;;;1.38;;
13985;SDS011;7067;51.832;8.296;2023-03-14T08:21:45;0.65;;;0.45;;
13985;SDS011;7067;51.832;8.296;2023-03-14T08:24:11;0.95;;;0.30;;
13985;SDS011;7067;51.832;8.296;2023-03-14T08:26:36;25.92;;;3.33;;
13985;SDS011;7067;51.832;8.296;2023-03-14T08:29:01;0.57;;;0.28;;
13985;SDS011;7067;51.832;8.296;2023-03-14T08:31:29;1.20;;;0.80;;
13985;SDS011;7067;51.832;8.296;2023-03-14T08:33:54;15.75;;;1.77;;
13985;SDS011;7067;51.832;8.296;2023-03-14T08:36:20;0.55;;;0.55;;
13985;SDS011;7067;51.832;8.296;2023-03-14T08:38:45;1.13;;;0.65;;
13985;SDS011;7067;51.832;8.296;2023-03-14T08:41:11;2.13;;;1.00;;
13985;SDS011;7067;51.832;8.296;2023-03-14T08:43:36;29.90;;;3.03;;
13985;SDS011;7067;51.832;8.296;2023-03-14T08:46:02;14.55;;;1.27;;
13985;SDS011;7067;51.832;8.296;2023-03-14T08:48:28;0.85;;;0.73;;
13985;SDS011;7067;51.832;8.296;2023-03-14T08:50:55;0.65;;;0.43;;
13985;SDS011;7067;51.832;8.296;2023-03-14T08:53:21;82.18;;;10.95;;
13985;SDS011;7067;51.832;8.296;2023-03-14T08:55:50;19.13;;;2.47;;
13985;SDS011;7067;51.832;8.296;2023-03-14T08:58:17;9.40;;;1.27;;
13985;SDS011;7067;51.832;8.296;2023-03-14T09:00:43;6.85;;;1.67;;
13985;SDS011;7067;51.832;8.296;2023-03-14T09:03:08;2.17;;;0.63;;
13985;SDS011;7067;51.832;8.296;2023-03-14T09:05:33;0.75;;;0.50;;
13985;SDS011;7067;51.832;8.296;2023-03-14T09:07:59;0.95;;;0.77;;
13985;SDS011;7067;51.832;8.296;2023-03-14T09:10:25;0.40;;;0.40;;
13985;SDS011;7067;51.832;8.296;2023-03-14T09:12:50;11.98;;;1.60;;
13985;SDS011;7067;51.832;8.296;2023-03-14T09:15:16;19.15;;;1.60;;
13985;SDS011;7067;51.832;8.296;2023-03-14T09:17:42;21.27;;;2.63;;
13985;SDS011;7067;51.832;8.296;2023-03-14T09:20:08;1.55;;;0.75;;
13985;SDS011;7067;51.832;8.296;2023-03-14T09:22:34;0.57;;;0.20;;
13985;SDS011;7067;51.832;8.296;2023-03-14T09:25:00;7.35;;;1.73;;
13985;SDS011;7067;51.832;8.296;2023-03-14T09:27:27;2.30;;;1.20;;
13985;SDS011;7067;51.832;8.296;2023-03-14T09:29:52;10.27;;;1.70;;
13985;SDS011;7067;51.832;8.296;2023-03-14T09:32:18;2.65;;;1.15;;
13985;SDS011;7067;51.832;8.296;2023-03-14T09:34:44;1.27;;;0.80;;
13985;SDS011;7067;51.832;8.296;2023-03-14T09:37:09;17.20;;;1.45;;
13985;SDS011;7067;51.832;8.296;2023-03-14T09:39:34;1.55;;;0.88;;
13985;SDS011;7067;51.832;8.296;2023-03-14T09:42:01;4.25;;;1.45;;
13985;SDS011;7067;51.832;8.296;2023-03-14T09:44:35;0.80;;;0.65;;
13985;SDS011;7067;51.832;8.296;2023-03-14T09:47:05;8.30;;;1.67;;
13985;SDS011;7067;51.832;8.296;2023-03-14T09:49:33;2.03;;;1.02;;
13985;SDS011;7067;51.832;8.296;2023-03-14T09:52:00;6.68;;;2.88;;
13985;SDS011;7067;51.832;8.296;2023-03-14T09:57:19;0.60;;;0.60;;
13985;SDS011;7067;51.832;8.296;2023-03-14T09:59:46;2.80;;;1.55;;
13985;SDS011;7067;51.832;8.296;2023-03-14T10:02:20;2.50;;;1.17;;
13985;SDS011;7067;51.832;8.296;2023-03-14T10:04:47;0.73;;;0.70;;
13985;SDS011;7067;51.832;8.296;2023-03-14T10:07:17;1.55;;;1.20;;
13985;SDS011;7067;51.832;8.296;2023-03-14T10:09:50;1.92;;;1.83;;
13985;SDS011;7067;51.832;8.296;2023-03-14T10:12:16;2.20;;;2.00;;
13985;SDS011;7067;51.832;8.296;2023-03-14T10:14:49;28.02;;;4.25;;
13985;SDS011;7067;51.832;8.296;2023-03-14T10:17:16;2.85;;;2.53;;
13985;SDS011;7067;51.832;8.296;2023-03-14T10:19:56;10.13;;;3.33;;
13985;SDS011;7067;51.832;8.296;2023-03-14T10:22:24;3.13;;;2.92;;
13985;SDS011;7067;51.832;8.296;2023-03-14T10:24:55;3.50;;;2.90;;
13985;SDS011;7067;51.832;8.296;2023-03-14T10:27:27;18.25;;;4.22;;
13985;SDS011;7067;51.832;8.296;2023-03-14T10:29:58;4.63;;;3.72;;
13985;SDS011;7067;51.832;8.296;2023-03-14T10:32:42;3.42;;;3.22;;
13985;SDS011;7067;51.832;8.296;2023-03-14T10:37:49;5.78;;;3.45;;
13985;SDS011;7067;51.832;8.296;2023-03-14T10:40:19;82.20;;;7.70;;
13985;SDS011;7067;51.832;8.296;2023-03-14T10:42:47;5.00;;;1.63;;
13985;SDS011;7067;51.832;8.296;2023-03-14T10:48:19;2.58;;;0.70;;
13985;SDS011;7067;51.832;8.296;2023-03-14T10:50:54;0.85;;;0.70;;
13985;SDS011;7067;51.832;8.296;2023-03-14T10:53:21;0.73;;;0.52;;
13985;SDS011;7067;51.832;8.296;2023-03-14T10:55:48;7.00;;;1.70;;
13985;SDS011;7067;51.832;8.296;2023-03-14T10:58:27;2.00;;;0.55;;
13985;SDS011;7067;51.832;8.296;2023-03-14T11:00:59;1.52;;;0.65;;
13985;SDS011;7067;51.832;8.296;2023-03-14T11:03:28;32.35;;;4.28;;
13985;SDS011;7067;51.832;8.296;2023-03-14T11:05:56;1.27;;;0.60;;
13985;SDS011;7067;51.832;8.296;2023-03-14T11:08:25;5.22;;;1.88;;
13985;SDS011;7067;51.832;8.296;2023-03-14T11:11:05;1.13;;;0.98;;
13985;SDS011;7067;51.832;8.296;2023-03-14T11:13:38;72.38;;;5.95;;
13985;SDS011;7067;51.832;8.296;2023-03-14T11:16:11;2.08;;;0.90;;
13985;SDS011;7067;51.832;8.296;2023-03-14T11:27:42;1.50;;;1.40;;
13985;SDS011;7067;51.832;8.296;2023-03-14T11:30:19;51.13;;;3.63;;
13985;SDS011;7067;51.832;8.296;2023-03-14T11:33:08;133.07;;;9.20;;
13985;SDS011;7067;51.832;8.296;2023-03-14T11:38:23;1.10;;;0.50;;
13985;SDS011;7067;51.832;8.296;2023-03-14T11:41:35;0.90;;;0.50;;
13985;SDS011;7067;51.832;8.296;2023-03-14T11:44:01;2.07;;;1.10;;
13985;SDS011;7067;51.832;8.296;2023-03-14T11:46:31;2.72;;;1.02;;
13985;SDS011;7067;51.832;8.296;2023-03-14T11:51:36;1.80;;;0.50;;
13985;SDS011;7067;51.832;8.296;2023-03-14T11:56:48;10.07;;;1.63;;
13985;SDS011;7067;51.832;8.296;2023-03-14T12:10:39;4.47;;;2.10;;
13985;SDS011;7067;51.832;8.296;2023-03-14T12:13:07;3.63;;;1.03;;
13985;SDS011;7067;51.832;8.296;2023-03-14T12:18:02;17.63;;;3.57;;
13985;SDS011;7067;51.832;8.296;2023-03-14T12:20:28;6.37;;;2.77;;
13985;SDS011;7067;51.832;8.296;2023-03-14T12:22:56;4.93;;;1.40;;
13985;SDS011;7067;51.832;8.296;2023-03-14T12:25:28;8.80;;;2.07;;
13985;SDS011;7067;51.832;8.296;2023-03-14T12:30:26;12.57;;;2.43;;
13985;SDS011;7067;51.832;8.296;2023-03-14T12:38:02;10.23;;;3.47;;
13985;SDS011;7067;51.832;8.296;2023-03-14T12:40:31;6.70;;;1.60;;
13985;SDS011;7067;51.832;8.296;2023-03-14T12:43:01;37.28;;;4.72;;
13985;SDS011;7067;51.832;8.296;2023-03-14T12:45:32;11.23;;;2.80;;
13985;SDS011;7067;51.832;8.296;2023-03-14T12:51:03;11.02;;;2.38;;
13985;SDS011;7067;51.832;8.296;2023-03-14T12:56:19;9.27;;;2.05;;
13985;SDS011;7067;51.832;8.296;2023-03-14T12:58:51;9.27;;;2.40;;
13985;SDS011;7067;51.832;8.296;2023-03-14T13:01:34;52.40;;;4.47;;
13985;SDS011;7067;51.832;8.296;2023-03-14T13:04:09;19.60;;;3.38;;
13985;SDS011;7067;51.832;8.296;2023-03-14T13:06:46;48.13;;;4.05;;
13985;SDS011;7067;51.832;8.296;2023-03-14T13:14:43;15.38;;;3.13;;
13985;SDS011;7067;51.832;8.296;2023-03-14T13:17:10;12.05;;;1.90;;
13985;SDS011;7067;51.832;8.296;2023-03-14T13:19:36;44.63;;;5.25;;
13985;SDS011;7067;51.832;8.296;2023-03-14T13:22:03;9.13;;;1.77;;
13985;SDS011;7067;51.832;8.296;2023-03-14T13:24:32;62.72;;;6.07;;
13985;SDS011;7067;51.832;8.296;2023-03-14T13:26:58;7.28;;;1.85;;
13985;SDS011;7067;51.832;8.296;2023-03-14T13:29:28;12.82;;;2.00;;
13985;SDS011;7067;51.832;8.296;2023-03-14T13:31:56;12.30;;;3.20;;
13985;SDS011;7067;51.832;8.296;2023-03-14T13:34:30;15.45;;;2.30;;
13985;SDS011;7067;51.832;8.296;2023-03-14T13:36:57;26.40;;;3.40;;
13985;SDS011;7067;51.832;8.296;2023-03-14T13:39:23;13.40;;;4.13;;
13985;SDS011;7067;51.832;8.296;2023-03-14T13:41:50;8.53;;;2.13;;
13985;SDS011;7067;51.832;8.296;2023-03-14T13:44:18;23.63;;;4.95;;
13985;SDS011;7067;51.832;8.296;2023-03-14T13:46:50;16.63;;;2.80;;
13985;SDS011;7067;51.832;8.296;2023-03-14T13:49:21;20.90;;;3.43;;
13985;SDS011;7067;51.832;8.296;2023-03-14T13:51:47;24.08;;;3.95;;
13985;SDS011;7067;51.832;8.296;2023-03-14T13:54:14;43.10;;;7.28;;
13985;SDS011;7067;51.832;8.296;2023-03-14T13:56:40;21.13;;;4.40;;
13985;SDS011;7067;51.832;8.296;2023-03-14T14:01:51;29.00;;;4.80;;
13985;SDS011;7067;51.832;8.296;2023-03-14T14:04:18;22.92;;;4.25;;
13985;SDS011;7067;51.832;8.296;2023-03-14T14:06:47;27.45;;;5.63;;
13985;SDS011;7067;51.832;8.296;2023-03-14T14:09:16;25.90;;;3.83;;
13985;SDS011;7067;51.832;8.296;2023-03-14T14:14:41;30.40;;;4.68;;
13985;SDS011;7067;51.832;8.296;2023-03-14T14:17:08;22.95;;;3.72;;
13985;SDS011;7067;51.832;8.296;2023-03-14T14:19:36;36.40;;;4.25;;
13985;SDS011;7067;51.832;8.296;2023-03-14T14:22:02;22.83;;;4.47;;
13985;SDS011;7067;51.832;8.296;2023-03-14T14:24:28;27.00;;;4.82;;
13985;SDS011;7067;51.832;8.296;2023-03-14T14:27:00;14.98;;;3.42;;
13985;SDS011;7067;51.832;8.296;2023-03-14T14:29:27;35.03;;;4.97;;
13985;SDS011;7067;51.832;8.296;2023-03-14T14:34:38;17.20;;;4.47;;
13985;SDS011;7067;51.832;8.296;2023-03-14T14:37:41;185.00;;;16.60;;
13985;SDS011;7067;51.832;8.296;2023-03-14T14:42:47;66.22;;;14.77;;
13985;SDS011;7067;51.832;8.296;2023-03-14T14:45:17;15.05;;;3.58;;
13985;SDS011;7067;51.832;8.296;2023-03-14T14:47:51;30.58;;;5.03;;
13985;SDS011;7067;51.832;8.296;2023-03-14T14:55:52;16.05;;;3.17;;
13985;SDS011;7067;51.832;8.296;2023-03-14T15:00:57;53.85;;;4.93;;
13985;SDS011;7067;51.832;8.296;2023-03-14T15:03:28;32.83;;;5.75;;
13985;SDS011;7067;51.832;8.296;2023-03-14T15:05:55;95.60;;;8.93;;
13985;SDS011;7067;51.832;8.296;2023-03-14T15:08:21;12.25;;;4.53;;
13985;SDS011;7067;51.832;8.296;2023-03-14T15:10:47;15.85;;;2.92;;
13985;SDS011;7067;51.832;8.296;2023-03-14T15:13:13;19.98;;;4.20;;
13985;SDS011;7067;51.832;8.296;2023-03-14T15:15:38;77.70;;;16.45;;
13985;SDS011;7067;51.832;8.296;2023-03-14T15:18:14;58.33;;;8.23;;
13985;SDS011;7067;51.832;8.296;2023-03-14T15:20:43;103.38;;;14.43;;
13985;SDS011;7067;51.832;8.296;2023-03-14T15:23:13;69.68;;;10.43;;
13985;SDS011;7067;51.832;8.296;2023-03-14T15:25:39;85.13;;;16.38;;
13985;SDS011;7067;51.832;8.296;2023-03-14T15:28:10;91.63;;;12.65;;
13985;SDS011;7067;51.832;8.296;2023-03-14T15:30:38;82.88;;;14.73;;
13985;SDS011;7067;51.832;8.296;2023-03-14T15:33:04;74.95;;;14.65;;
13985;SDS011;7067;51.832;8.296;2023-03-14T15:35:29;61.78;;;10.85;;
13985;SDS011;7067;51.832;8.296;2023-03-14T15:37:54;76.18;;;12.85;;
13985;SDS011;7067;51.832;8.296;2023-03-14T15:40:20;89.22;;;14.82;;
13985;SDS011;7067;51.832;8.296;2023-03-14T15:42:46;74.05;;;17.70;;
13985;SDS011;7067;51.832;8.296;2023-03-14T15:45:11;86.25;;;13.98;;
13985;SDS011;7067;51.832;8.296;2023-03-14T15:47:37;79.75;;;10.70;;
13985;SDS011;7067;51.832;8.296;2023-03-14T15:50:02;84.20;;;23.98;;
13985;SDS011;7067;51.832;8.296;2023-03-14T15:52:28;87.32;;;19.42;;
13985;SDS011;7067;51.832;8.296;2023-03-14T15:54:54;79.45;;;19.45;;
13985;SDS011;7067;51.832;8.296;2023-03-14T15:57:19;59.85;;;7.93;;
13985;SDS011;7067;51.832;8.296;2023-03-14T15:59:44;77.35;;;13.75;;
13985;SDS011;7067;51.832;8.296;2023-03-14T16:02:10;121.32;;;18.60;;
13985;SDS011;7067;51.832;8.296;2023-03-14T16:04:35;59.72;;;10.50;;
13985;SDS011;7067;51.832;8.296;2023-03-14T16:07:00;108.40;;;19.95;;
13985;SDS011;7067;51.832;8.296;2023-03-14T16:09:26;100.78;;;19.35;;
13985;SDS011;7067;51.832;8.296;2023-03-14T16:11:51;107.95;;;19.65;;
13985;SDS011;7067;51.832;8.296;2023-03-14T16:14:18;115.18;;;20.50;;
13985;SDS011;7067;51.832;8.296;2023-03-14T16:16:43;115.22;;;20.67;;
13985;SDS011;7067;51.832;8.296;2023-03-14T16:19:09;89.07;;;14.02;;
13985;SDS011;7067;51.832;8.296;2023-03-14T16:21:34;77.63;;;18.15;;
13985;SDS011;7067;51.832;8.296;2023-03-14T16:24:02;102.40;;;18.05;;